Time,TemperatureF,DewpointF,PressureIn,WindDirection,WindDirectionDegrees,WindSpeedMPH,WindSpeedGustMPH,Humidity,HourlyPrecipIn,Conditions,Clouds,dailyrainin,SoftwareType,DateUTC
2013-03-04 00:01:00,46.5,44.9,29.91,North,5,0.0,12.0,94,0.00,,,0.00,Wunderground v.1.15,2013-03-04 08:01:00,
2013-03-04 00:07:00,46.4,44.8,29.91,North,5,0.0,12.0,94,0.00,,,0.00,Wunderground v.1.15,2013-03-04 08:07:00,
2013-03-04 00:12:00,46.3,44.4,29.91,North,5,0.0,12.0,93,0.00,,,0.00,Wunderground v.1.15,2013-03-04 08:12:00,
2013-03-04 00:17:00,46.2,44.6,29.92,North,5,0.0,12.0,94,0.00,,,0.00,Wunderground v.1.15,2013-03-04 08:17:00,
2013-03-04 00:22:00,46.2,44.6,29.92,North,5,0.0,12.0,94,0.00,,,0.00,Wunderground v.1.15,2013-03-04 08:22:00,
2013-03-04 00:27:00,46.1,44.5,29.92,North,5,0.0,12.0,94,0.00,,,0.00,Wunderground v.1.15,2013-03-04 08:27:00,
2013-03-04 00:32:00,46.0,44.4,29.92,North,5,0.0,12.0,94,0.00,,,0.00,Wunderground v.1.15,2013-03-04 08:32:00,
2013-03-04 00:38:00,46.0,44.4,29.92,North,5,0.0,12.0,94,0.00,,,0.00,Wunderground v.1.15,2013-03-04 08:38:00,
2013-03-04 00:43:00,45.9,44.3,29.92,North,360,0.0,12.0,94,0.00,,,0.00,Wunderground v.1.15,2013-03-04 08:43:00,
2013-03-04 00:48:00,45.8,44.2,29.92,North,5,0.0,12.0,94,0.00,,,0.00,Wunderground v.1.15,2013-03-04 08:48:00,
2013-03-04 00:53:00,45.8,44.2,29.92,North,360,0.0,12.0,94,0.00,,,0.00,Wunderground v.1.15,2013-03-04 08:53:00,
2013-03-04 00:58:00,45.8,44.2,29.92,North,5,0.0,12.0,94,0.00,,,0.00,Wunderground v.1.15,2013-03-04 08:58:00,
2013-03-04 01:03:00,45.8,44.2,29.92,North,360,0.0,12.0,94,0.00,,,0.00,Wunderground v.1.15,2013-03-04 09:03:00,
2013-03-04 01:08:00,45.7,44.4,29.92,North,5,0.0,12.0,95,0.00,,,0.00,Wunderground v.1.15,2013-03-04 09:08:00,
2013-03-04 01:13:00,45.7,44.4,29.92,North,5,0.0,12.0,95,0.00,,,0.00,Wunderground v.1.15,2013-03-04 09:13:00,
2013-03-04 01:19:00,45.6,44.3,29.92,North,360,0.0,12.0,95,0.00,,,0.00,Wunderground v.1.15,2013-03-04 09:19:00,
2013-03-04 01:25:00,45.5,43.9,29.93,North,360,0.0,12.0,94,0.00,,,0.00,Wunderground v.1.15,2013-03-04 09:25:00,
2013-03-04 01:30:00,45.5,44.2,29.93,North,360,0.0,12.0,95,0.00,,,0.00,Wunderground v.1.15,2013-03-04 09:30:00,
2013-03-04 01:35:00,45.5,44.2,29.93,North,5,0.0,12.0,95,0.00,,,0.00,Wunderground v.1.15,2013-03-04 09:35:00,
2013-03-04 01:40:00,45.5,44.2,29.93,North,5,0.0,12.0,95,0.00,,,0.00,Wunderground v.1.15,2013-03-04 09:40:00,
2013-03-04 01:45:00,45.4,44.1,29.93,North,5,0.0,12.0,95,0.00,,,0.00,Wunderground v.1.15,2013-03-04 09:45:00,
2013-03-04 01:50:00,45.4,44.1,29.93,North,5,0.0,12.0,95,0.00,,,0.00,Wunderground v.1.15,2013-03-04 09:50:00,
2013-03-04 01:55:00,45.2,43.6,29.93,North,360,0.0,12.0,94,0.00,,,0.00,Wunderground v.1.15,2013-03-04 09:55:00,
2013-03-04 02:01:00,45.1,43.8,29.94,North,5,0.0,12.0,95,0.00,,,0.00,Wunderground v.1.15,2013-03-04 10:01:00,
2013-03-04 02:06:00,45.0,43.7,29.93,North,5,0.0,12.0,95,0.00,,,0.00,Wunderground v.1.15,2013-03-04 10:06:00,
2013-03-04 02:11:00,44.9,43.6,29.93,North,360,0.0,12.0,95,0.00,,,0.00,Wunderground v.1.15,2013-03-04 10:11:00,
2013-03-04 02:16:00,44.9,43.6,29.92,North,5,0.0,12.0,95,0.00,,,0.00,Wunderground v.1.15,2013-03-04 10:16:00,
2013-03-04 02:21:00,44.8,43.5,29.92,North,360,0.0,12.0,95,0.00,,,0.00,Wunderground v.1.15,2013-03-04 10:21:00,
2013-03-04 02:26:00,44.7,43.4,29.92,North,360,0.0,12.0,95,0.00,,,0.00,Wunderground v.1.15,2013-03-04 10:26:00,
2013-03-04 02:32:00,44.6,43.3,29.93,North,360,0.0,12.0,95,0.00,,,0.00,Wunderground v.1.15,2013-03-04 10:32:00,
2013-03-04 02:37:00,44.7,43.4,29.93,North,360,0.0,12.0,95,0.00,,,0.00,Wunderground v.1.15,2013-03-04 10:37:00,
2013-03-04 02:43:00,44.6,43.3,29.93,North,5,0.0,12.0,95,0.00,,,0.00,Wunderground v.1.15,2013-03-04 10:43:00,
2013-03-04 02:48:00,44.4,43.1,29.93,North,5,0.0,12.0,95,0.00,,,0.00,Wunderground v.1.15,2013-03-04 10:48:00,
2013-03-04 02:53:00,44.3,43.0,29.93,North,360,0.0,12.0,95,0.00,,,0.00,Wunderground v.1.15,2013-03-04 10:53:00,
2013-03-04 02:58:00,44.2,42.9,29.93,North,5,0.0,12.0,95,0.00,,,0.00,Wunderground v.1.15,2013-03-04 10:58:00,
2013-03-04 03:04:00,44.1,42.8,29.93,North,5,0.0,12.0,95,0.00,,,0.00,Wunderground v.1.15,2013-03-04 11:04:00,
2013-03-04 03:09:00,43.9,42.6,29.92,North,360,0.0,12.0,95,0.00,,,0.00,Wunderground v.1.15,2013-03-04 11:09:00,
2013-03-04 03:14:00,43.8,42.5,29.92,North,5,0.0,12.0,95,0.00,,,0.00,Wunderground v.1.15,2013-03-04 11:14:00,
2013-03-04 03:19:00,43.7,42.4,29.92,North,5,0.0,12.0,95,0.00,,,0.00,Wunderground v.1.15,2013-03-04 11:19:00,
2013-03-04 03:25:00,43.7,42.4,29.93,North,360,0.0,12.0,95,0.00,,,0.00,Wunderground v.1.15,2013-03-04 11:25:00,
2013-03-04 03:30:00,43.8,42.7,29.93,North,5,0.0,12.0,96,0.00,,,0.00,Wunderground v.1.15,2013-03-04 11:30:00,
2013-03-04 03:35:00,43.8,42.5,29.93,North,5,0.0,12.0,95,0.00,,,0.00,Wunderground v.1.15,2013-03-04 11:35:00,
2013-03-04 03:40:00,43.7,42.6,29.93,North,5,0.0,12.0,96,0.00,,,0.00,Wunderground v.1.15,2013-03-04 11:40:00,
2013-03-04 03:46:00,43.7,42.6,29.93,North,360,0.0,12.0,96,0.00,,,0.00,Wunderground v.1.15,2013-03-04 11:46:00,
2013-03-04 03:51:00,43.7,42.6,29.93,North,5,0.0,12.0,96,0.00,,,0.00,Wunderground v.1.15,2013-03-04 11:51:00,
2013-03-04 03:56:00,43.6,42.5,29.93,North,360,0.0,12.0,96,0.00,,,0.00,Wunderground v.1.15,2013-03-04 11:56:00,
2013-03-04 04:01:00,43.5,42.2,29.93,North,5,0.0,12.0,95,0.00,,,0.00,Wunderground v.1.15,2013-03-04 12:01:00,
2013-03-04 04:07:00,43.3,42.0,29.94,North,5,0.0,12.0,95,0.00,,,0.00,Wunderground v.1.15,2013-03-04 12:07:00,
2013-03-04 04:12:00,43.1,41.8,29.94,North,5,0.0,12.0,95,0.00,,,0.00,Wunderground v.1.15,2013-03-04 12:12:00,
2013-03-04 04:17:00,43.1,42.0,29.94,North,5,0.0,12.0,96,0.00,,,0.00,Wunderground v.1.15,2013-03-04 12:17:00,
2013-03-04 04:22:00,43.0,41.9,29.94,North,5,0.0,12.0,96,0.00,,,0.00,Wunderground v.1.15,2013-03-04 12:22:00,
2013-03-04 04:27:00,42.9,41.6,29.94,North,360,0.0,12.0,95,0.00,,,0.00,Wunderground v.1.15,2013-03-04 12:27:00,
2013-03-04 04:32:00,42.8,41.5,29.94,North,5,0.0,12.0,95,0.00,,,0.00,Wunderground v.1.15,2013-03-04 12:32:00,
2013-03-04 04:37:00,42.7,41.6,29.94,North,5,0.0,12.0,96,0.00,,,0.00,Wunderground v.1.15,2013-03-04 12:37:00,
2013-03-04 04:42:00,42.7,41.6,29.94,North,360,0.0,12.0,96,0.00,,,0.00,Wunderground v.1.15,2013-03-04 12:42:00,
2013-03-04 04:47:00,42.6,41.5,29.93,North,5,0.0,12.0,96,0.00,,,0.00,Wunderground v.1.15,2013-03-04 12:47:00,
2013-03-04 04:53:00,42.6,41.5,29.93,North,5,0.0,12.0,96,0.00,,,0.00,Wunderground v.1.15,2013-03-04 12:53:00,
2013-03-04 04:58:00,42.8,41.7,29.93,North,360,0.0,12.0,96,0.00,,,0.00,Wunderground v.1.15,2013-03-04 12:58:00,
2013-03-04 05:03:00,42.9,41.8,29.93,North,5,0.0,12.0,96,0.00,,,0.00,Wunderground v.1.15,2013-03-04 13:03:00,
2013-03-04 05:08:00,43.0,41.9,29.94,North,360,0.0,12.0,96,0.00,,,0.00,Wunderground v.1.15,2013-03-04 13:08:00,
2013-03-04 05:13:00,43.2,42.1,29.94,North,5,0.0,12.0,96,0.00,,,0.00,Wunderground v.1.15,2013-03-04 13:13:00,
2013-03-04 05:18:00,43.3,42.2,29.94,North,5,0.0,12.0,96,0.00,,,0.00,Wunderground v.1.15,2013-03-04 13:18:00,
2013-03-04 05:23:00,43.3,42.2,29.94,North,360,0.0,12.0,96,0.00,,,0.00,Wunderground v.1.15,2013-03-04 13:23:00,
2013-03-04 05:28:00,43.4,42.6,29.94,North,5,0.0,12.0,97,0.00,,,0.00,Wunderground v.1.15,2013-03-04 13:28:00,
2013-03-04 05:33:00,43.5,42.7,29.94,North,5,0.0,12.0,97,0.00,,,0.00,Wunderground v.1.15,2013-03-04 13:33:00,
2013-03-04 05:38:00,43.6,42.8,29.94,North,360,0.0,12.0,97,0.00,,,0.00,Wunderground v.1.15,2013-03-04 13:38:00,
2013-03-04 05:43:00,43.7,42.9,29.94,North,5,0.0,12.0,97,0.00,,,0.00,Wunderground v.1.15,2013-03-04 13:43:00,
2013-03-04 05:48:00,43.9,43.1,29.94,North,360,0.0,12.0,97,0.00,,,0.00,Wunderground v.1.15,2013-03-04 13:48:00,
2013-03-04 05:54:00,43.9,42.8,29.94,North,360,0.0,12.0,96,0.00,,,0.00,Wunderground v.1.15,2013-03-04 13:54:00,
2013-03-04 05:59:00,43.8,42.7,29.94,North,5,0.0,12.0,96,0.00,,,0.00,Wunderground v.1.15,2013-03-04 13:59:00,
2013-03-04 06:04:00,43.8,42.7,29.94,North,360,0.0,12.0,96,0.00,,,0.00,Wunderground v.1.15,2013-03-04 14:04:00,
2013-03-04 06:09:00,43.7,42.6,29.94,North,360,0.0,12.0,96,0.00,,,0.00,Wunderground v.1.15,2013-03-04 14:09:00,
2013-03-04 06:14:00,43.7,42.9,29.95,North,5,0.0,12.0,97,0.00,,,0.00,Wunderground v.1.15,2013-03-04 14:14:00,
2013-03-04 06:19:00,43.7,42.9,29.95,North,5,0.0,12.0,97,0.00,,,0.00,Wunderground v.1.15,2013-03-04 14:19:00,
2013-03-04 06:25:00,43.5,42.4,29.95,North,5,0.0,12.0,96,0.00,,,0.00,Wunderground v.1.15,2013-03-04 14:25:00,
2013-03-04 06:30:00,43.3,42.2,29.96,North,360,0.0,12.0,96,0.00,,,0.00,Wunderground v.1.15,2013-03-04 14:30:00,
2013-03-04 06:36:00,43.1,42.0,29.96,North,5,0.0,12.0,96,0.00,,,0.00,Wunderground v.1.15,2013-03-04 14:36:00,
2013-03-04 06:41:00,43.0,41.9,29.96,North,360,0.0,12.0,96,0.00,,,0.00,Wunderground v.1.15,2013-03-04 14:41:00,
2013-03-04 06:46:00,42.9,41.8,29.96,North,360,0.0,12.0,96,0.00,,,0.00,Wunderground v.1.15,2013-03-04 14:46:00,
2013-03-04 06:51:00,42.8,41.7,29.97,North,5,0.0,12.0,96,0.00,,,0.00,Wunderground v.1.15,2013-03-04 14:51:00,
2013-03-04 06:56:00,42.8,42.0,29.97,North,360,0.0,12.0,97,0.00,,,0.00,Wunderground v.1.15,2013-03-04 14:56:00,
2013-03-04 07:01:00,43.0,42.2,29.97,North,5,0.0,12.0,97,0.00,,,0.00,Wunderground v.1.15,2013-03-04 15:01:00,
2013-03-04 07:06:00,43.1,42.3,29.98,North,5,0.0,12.0,97,0.00,,,0.00,Wunderground v.1.15,2013-03-04 15:06:00,
2013-03-04 07:11:00,43.3,42.5,29.98,North,360,0.0,12.0,97,0.00,,,0.00,Wunderground v.1.15,2013-03-04 15:11:00,
2013-03-04 07:16:00,43.7,42.9,29.98,North,5,0.0,12.0,97,0.00,,,0.00,Wunderground v.1.15,2013-03-04 15:16:00,
2013-03-04 07:22:00,44.5,44.0,29.99,North,360,0.0,12.0,98,0.00,,,0.00,Wunderground v.1.15,2013-03-04 15:22:00,
2013-03-04 07:27:00,45.1,44.6,29.99,North,5,0.0,12.0,98,0.00,,,0.00,Wunderground v.1.15,2013-03-04 15:27:00,
2013-03-04 07:32:00,45.5,45.0,29.99,North,5,0.0,12.0,98,0.00,,,0.00,Wunderground v.1.15,2013-03-04 15:32:00,
2013-03-04 07:37:00,46.1,45.6,29.99,North,360,0.0,12.0,98,0.00,,,0.00,Wunderground v.1.15,2013-03-04 15:37:00,
2013-03-04 07:42:00,46.6,46.1,29.99,North,5,0.0,12.0,98,0.00,,,0.00,Wunderground v.1.15,2013-03-04 15:42:00,
2013-03-04 07:47:00,46.9,46.4,29.99,North,360,0.0,12.0,98,0.00,,,0.00,Wunderground v.1.15,2013-03-04 15:47:00,
2013-03-04 07:52:00,47.2,46.7,29.98,North,5,0.0,12.0,98,0.00,,,0.00,Wunderground v.1.15,2013-03-04 15:52:00,
2013-03-04 07:57:00,47.6,47.1,29.98,North,360,0.0,12.0,98,0.00,,,0.00,Wunderground v.1.15,2013-03-04 15:57:00,
2013-03-04 08:02:00,48.4,48.1,29.98,North,360,0.0,12.0,99,0.00,,,0.00,Wunderground v.1.15,2013-03-04 16:02:00,
2013-03-04 08:07:00,49.4,49.1,29.99,North,5,0.0,12.0,99,0.00,,,0.00,Wunderground v.1.15,2013-03-04 16:07:00,
2013-03-04 08:12:00,49.8,49.5,29.98,North,5,0.0,12.0,99,0.00,,,0.00,Wunderground v.1.15,2013-03-04 16:12:00,
2013-03-04 08:17:00,50.3,50.0,29.99,North,5,0.0,12.0,99,0.00,,,0.00,Wunderground v.1.15,2013-03-04 16:17:00,
2013-03-04 08:23:00,50.9,50.4,29.99,North,5,0.0,12.0,98,0.00,,,0.00,Wunderground v.1.15,2013-03-04 16:23:00,
2013-03-04 08:28:00,51.3,50.5,29.99,North,5,0.0,12.0,97,0.00,,,0.00,Wunderground v.1.15,2013-03-04 16:28:00,
2013-03-04 08:33:00,51.7,50.9,29.99,SW,222,0.0,12.0,97,0.00,,,0.00,Wunderground v.1.15,2013-03-04 16:33:00,
2013-03-04 08:38:00,52.2,51.1,29.98,SW,222,0.0,12.0,96,0.00,,,0.00,Wunderground v.1.15,2013-03-04 16:38:00,
2013-03-04 08:43:00,52.9,51.5,29.98,SW,224,0.0,12.0,95,0.00,,,0.00,Wunderground v.1.15,2013-03-04 16:43:00,
2013-03-04 08:48:00,53.7,51.4,29.98,SW,224,0.0,12.0,92,0.00,,,0.00,Wunderground v.1.15,2013-03-04 16:48:00,
2013-03-04 08:53:00,54.6,51.7,29.99,SW,232,0.0,12.0,90,0.00,,,0.00,Wunderground v.1.15,2013-03-04 16:53:00,
2013-03-04 08:58:00,55.0,51.8,29.99,West,263,1.0,12.0,89,0.00,,,0.00,Wunderground v.1.15,2013-03-04 16:58:00,
2013-03-04 09:03:00,55.6,51.8,29.99,WNW,296,1.0,12.0,87,0.00,,,0.00,Wunderground v.1.15,2013-03-04 17:03:00,
2013-03-04 09:08:00,56.2,52.1,29.99,WNW,296,1.0,12.0,86,0.00,,,0.00,Wunderground v.1.15,2013-03-04 17:08:00,
2013-03-04 09:13:00,56.9,51.8,30.00,WNW,297,0.0,12.0,83,0.00,,,0.00,Wunderground v.1.15,2013-03-04 17:13:00,
2013-03-04 09:19:00,57.6,51.8,30.00,WSW,250,1.0,12.0,81,0.00,,,0.00,Wunderground v.1.15,2013-03-04 17:19:00,
2013-03-04 09:24:00,57.8,51.7,29.99,WSW,250,1.0,12.0,80,0.00,,,0.00,Wunderground v.1.15,2013-03-04 17:24:00,
2013-03-04 09:29:00,58.3,52.2,29.99,WSW,255,1.0,12.0,80,0.00,,,0.00,Wunderground v.1.15,2013-03-04 17:29:00,
2013-03-04 09:34:00,59.1,52.2,29.99,SW,229,1.0,12.0,78,0.00,,,0.00,Wunderground v.1.15,2013-03-04 17:34:00,
2013-03-04 09:39:00,59.3,52.4,30.00,WSW,254,2.0,12.0,78,0.00,,,0.00,Wunderground v.1.15,2013-03-04 17:39:00,
2013-03-04 09:44:00,59.6,52.4,29.99,West,270,2.0,12.0,77,0.00,,,0.00,Wunderground v.1.15,2013-03-04 17:44:00,
2013-03-04 09:49:00,59.9,52.3,30.00,WSW,248,2.0,2.0,76,0.00,,,0.00,Wunderground v.1.15,2013-03-04 17:49:00,
2013-03-04 09:54:00,60.1,52.1,29.99,West,268,3.0,12.0,75,0.00,,,0.00,Wunderground v.1.15,2013-03-04 17:54:00,
2013-03-04 10:00:00,60.6,52.6,29.99,West,264,2.0,12.0,75,0.00,,,0.00,Wunderground v.1.15,2013-03-04 18:00:00,
2013-03-04 10:05:00,61.2,52.8,29.99,SW,230,1.0,12.0,74,0.00,,,0.00,Wunderground v.1.15,2013-03-04 18:05:00,
2013-03-04 10:10:00,61.2,52.5,29.98,West,275,2.0,12.0,73,0.00,,,0.00,Wunderground v.1.15,2013-03-04 18:10:00,
2013-03-04 10:15:00,61.4,52.3,29.98,West,259,2.0,12.0,72,0.00,,,0.00,Wunderground v.1.15,2013-03-04 18:15:00,
2013-03-04 10:20:00,61.6,52.1,29.98,SW,236,2.0,12.0,71,0.00,,,0.00,Wunderground v.1.15,2013-03-04 18:20:00,
2013-03-04 10:25:00,61.9,52.8,29.98,WSW,244,2.0,12.0,72,0.00,,,0.00,Wunderground v.1.15,2013-03-04 18:25:00,
2013-03-04 10:29:00,62.3,52.8,29.98,West,272,2.0,2.0,71,0.00,,,0.00,Wunderground v.1.15,2013-03-04 18:29:00,
2013-03-04 10:30:00,62.3,52.4,29.98,West,268,2.0,12.0,70,0.00,,,0.00,Wunderground v.1.15,2013-03-04 18:30:00,
2013-03-04 10:32:00,62.4,52.9,29.97,SSW,213,2.0,12.0,71,0.00,,,0.00,Wunderground v.1.15,2013-03-04 18:32:00,
2013-03-04 10:36:00,62.7,53.2,29.97,WNW,298,1.0,12.0,71,0.00,,,0.00,Wunderground v.1.15,2013-03-04 18:36:00,
2013-03-04 10:41:00,63.4,53.4,29.97,West,267,1.0,12.0,70,0.00,,,0.00,Wunderground v.1.15,2013-03-04 18:41:00,
2013-03-04 10:46:00,63.6,52.8,29.98,West,260,3.0,12.0,68,0.00,,,0.00,Wunderground v.1.15,2013-03-04 18:46:00,
2013-03-04 10:51:00,63.6,53.2,29.98,WSW,246,3.0,7.0,69,0.00,,,0.00,Wunderground v.1.15,2013-03-04 18:51:00,
2013-03-04 10:57:00,64.1,53.7,29.98,SW,225,2.0,12.0,69,0.00,,,0.00,Wunderground v.1.15,2013-03-04 18:57:00,
2013-03-04 11:02:00,65.1,53.5,29.98,West,279,2.0,12.0,66,0.00,,,0.00,Wunderground v.1.15,2013-03-04 19:02:00,
2013-03-04 11:07:00,65.1,53.9,29.98,NW,313,4.0,12.0,67,0.00,,,0.00,Wunderground v.1.15,2013-03-04 19:07:00,
2013-03-04 11:12:00,65.6,53.9,29.98,WNW,288,4.0,12.0,66,0.00,,,0.00,Wunderground v.1.15,2013-03-04 19:12:00,
2013-03-04 11:18:00,65.1,53.0,29.98,West,271,5.0,12.0,65,0.00,,,0.00,Wunderground v.1.15,2013-03-04 19:18:00,
2013-03-04 11:23:00,64.4,52.4,29.98,West,279,6.0,12.0,65,0.00,,,0.00,Wunderground v.1.15,2013-03-04 19:23:00,
2013-03-04 11:28:00,64.7,53.5,29.98,NW,310,5.0,12.0,67,0.00,,,0.00,Wunderground v.1.15,2013-03-04 19:28:00,
2013-03-04 11:33:00,65.2,53.6,29.98,West,278,4.0,12.0,66,0.00,,,0.00,Wunderground v.1.15,2013-03-04 19:33:00,
2013-03-04 11:39:00,65.5,53.0,29.98,WSW,252,5.0,5.0,64,0.00,,,0.00,Wunderground v.1.15,2013-03-04 19:39:00,
2013-03-04 11:44:00,65.5,52.6,29.98,WNW,298,6.0,12.0,63,0.00,,,0.00,Wunderground v.1.15,2013-03-04 19:44:00,
2013-03-04 11:49:00,65.1,52.6,29.98,WNW,302,7.0,7.0,64,0.00,,,0.00,Wunderground v.1.15,2013-03-04 19:49:00,
2013-03-04 11:54:00,65.6,53.1,29.98,West,275,6.0,12.0,64,0.00,,,0.00,Wunderground v.1.15,2013-03-04 19:54:00,
2013-03-04 12:00:00,65.7,52.8,29.98,WSW,242,5.0,12.0,63,0.00,,,0.00,Wunderground v.1.15,2013-03-04 20:00:00,
2013-03-04 12:05:00,66.2,52.8,29.98,West,261,6.0,12.0,62,0.00,,,0.00,Wunderground v.1.15,2013-03-04 20:05:00,
2013-03-04 12:11:00,66.7,52.8,29.98,WSW,250,4.0,12.0,61,0.00,,,0.00,Wunderground v.1.15,2013-03-04 20:11:00,
2013-03-04 12:16:00,66.2,52.8,29.97,SW,226,4.0,12.0,62,0.00,,,0.00,Wunderground v.1.15,2013-03-04 20:16:00,
2013-03-04 12:21:00,65.5,52.1,29.97,SW,234,5.0,12.0,62,0.00,,,0.00,Wunderground v.1.15,2013-03-04 20:21:00,
2013-03-04 12:26:00,65.3,52.4,29.96,SW,232,5.0,12.0,63,0.00,,,0.00,Wunderground v.1.15,2013-03-04 20:26:00,
2013-03-04 12:31:00,65.7,52.8,29.96,WSW,241,4.0,12.0,63,0.00,,,0.00,Wunderground v.1.15,2013-03-04 20:31:00,
2013-03-04 12:36:00,66.3,52.4,29.96,West,276,4.0,12.0,61,0.00,,,0.00,Wunderground v.1.15,2013-03-04 20:36:00,
2013-03-04 12:41:00,66.6,52.3,29.96,WNW,290,4.0,12.0,60,0.00,,,0.00,Wunderground v.1.15,2013-03-04 20:41:00,
2013-03-04 12:46:00,66.7,51.9,29.95,West,271,4.0,12.0,59,0.00,,,0.00,Wunderground v.1.15,2013-03-04 20:46:00,
2013-03-04 12:51:00,66.8,52.5,29.95,North,349,4.0,12.0,60,0.00,,,0.00,Wunderground v.1.15,2013-03-04 20:51:00,
2013-03-04 12:56:00,66.8,51.5,29.95,WNW,295,3.0,12.0,58,0.00,,,0.00,Wunderground v.1.15,2013-03-04 20:56:00,
2013-03-04 13:01:00,66.7,51.9,29.95,WSW,247,4.0,12.0,59,0.00,,,0.00,Wunderground v.1.15,2013-03-04 21:01:00,
2013-03-04 13:06:00,66.7,51.9,29.95,West,271,5.0,13.0,59,0.00,,,0.00,Wunderground v.1.15,2013-03-04 21:06:00,
2013-03-04 13:11:00,66.6,51.8,29.94,WNW,284,6.0,12.0,59,0.00,,,0.00,Wunderground v.1.15,2013-03-04 21:11:00,
2013-03-04 13:17:00,67.2,53.3,29.94,WNW,289,5.0,12.0,61,0.00,,,0.00,Wunderground v.1.15,2013-03-04 21:17:00,
2013-03-04 13:22:00,67.1,51.8,29.94,WSW,255,5.0,12.0,58,0.00,,,0.00,Wunderground v.1.15,2013-03-04 21:22:00,
2013-03-04 13:27:00,66.8,52.0,29.94,WNW,284,6.0,12.0,59,0.00,,,0.00,Wunderground v.1.15,2013-03-04 21:27:00,
2013-03-04 13:33:00,66.9,51.6,29.94,West,271,5.0,12.0,58,0.00,,,0.00,Wunderground v.1.15,2013-03-04 21:33:00,
2013-03-04 13:38:00,66.8,52.0,29.93,WNW,291,5.0,12.0,59,0.00,,,0.00,Wunderground v.1.15,2013-03-04 21:38:00,
2013-03-04 13:43:00,66.6,52.3,29.93,West,267,5.0,12.0,60,0.00,,,0.00,Wunderground v.1.15,2013-03-04 21:43:00,
2013-03-04 13:49:00,66.5,52.2,29.94,WNW,288,5.0,5.0,60,0.00,,,0.00,Wunderground v.1.15,2013-03-04 21:49:00,
2013-03-04 13:54:00,66.8,52.0,29.93,West,273,5.0,12.0,59,0.00,,,0.00,Wunderground v.1.15,2013-03-04 21:54:00,
2013-03-04 13:59:00,66.2,51.9,29.93,NW,304,5.0,12.0,60,0.00,,,0.00,Wunderground v.1.15,2013-03-04 21:59:00,
2013-03-04 14:04:00,66.6,52.3,29.94,NW,323,5.0,12.0,60,0.00,,,0.00,Wunderground v.1.15,2013-03-04 22:04:00,
2013-03-04 14:09:00,65.8,51.5,29.94,WNW,291,5.0,5.0,60,0.00,,,0.00,Wunderground v.1.15,2013-03-04 22:09:00,
2013-03-04 14:14:00,65.4,51.6,29.94,WSW,255,5.0,12.0,61,0.00,,,0.00,Wunderground v.1.15,2013-03-04 22:14:00,
2013-03-04 14:19:00,64.8,51.5,29.94,West,269,6.0,12.0,62,0.00,,,0.00,Wunderground v.1.15,2013-03-04 22:19:00,
2013-03-04 14:25:00,64.8,51.9,29.93,WNW,290,6.0,12.0,63,0.00,,,0.00,Wunderground v.1.15,2013-03-04 22:25:00,
2013-03-04 14:30:00,64.7,51.8,29.94,West,273,6.0,12.0,63,0.00,,,0.00,Wunderground v.1.15,2013-03-04 22:30:00,
2013-03-04 14:35:00,64.7,51.4,29.93,WSW,249,6.0,12.0,62,0.00,,,0.00,Wunderground v.1.15,2013-03-04 22:35:00,
2013-03-04 14:40:00,64.1,51.7,29.93,NNW,333,6.0,12.0,64,0.00,,,0.00,Wunderground v.1.15,2013-03-04 22:40:00,
2013-03-04 14:46:00,64.5,51.6,29.93,West,277,5.0,12.0,63,0.00,,,0.00,Wunderground v.1.15,2013-03-04 22:46:00,
2013-03-04 14:51:00,64.7,51.4,29.93,WNW,288,4.0,12.0,62,0.00,,,0.00,Wunderground v.1.15,2013-03-04 22:51:00,
2013-03-04 14:56:00,64.7,51.4,29.93,WSW,244,4.0,12.0,62,0.00,,,0.00,Wunderground v.1.15,2013-03-04 22:56:00,
2013-03-04 15:01:00,64.4,51.1,29.93,NW,318,5.0,12.0,62,0.00,,,0.00,Wunderground v.1.15,2013-03-04 23:01:00,
2013-03-04 15:07:00,65.0,51.7,29.93,SW,232,3.0,12.0,62,0.00,,,0.00,Wunderground v.1.15,2013-03-04 23:07:00,
2013-03-04 15:12:00,64.9,51.1,29.93,WNW,294,4.0,12.0,61,0.00,,,0.00,Wunderground v.1.15,2013-03-04 23:12:00,
2013-03-04 15:17:00,65.1,51.3,29.93,West,280,3.0,12.0,61,0.00,,,0.00,Wunderground v.1.15,2013-03-04 23:17:00,
2013-03-04 15:23:00,65.7,51.9,29.93,West,273,2.0,12.0,61,0.00,,,0.00,Wunderground v.1.15,2013-03-04 23:23:00,
2013-03-04 15:28:00,65.7,51.0,29.93,WNW,286,3.0,12.0,59,0.00,,,0.00,Wunderground v.1.15,2013-03-04 23:28:00,
2013-03-04 15:33:00,65.6,51.3,29.92,West,269,3.0,12.0,60,0.00,,,0.00,Wunderground v.1.15,2013-03-04 23:33:00,
2013-03-04 15:38:00,65.3,51.5,29.92,West,269,3.0,12.0,61,0.00,,,0.00,Wunderground v.1.15,2013-03-04 23:38:00,
2013-03-04 15:43:00,65.4,51.6,29.92,West,277,2.0,12.0,61,0.00,,,0.00,Wunderground v.1.15,2013-03-04 23:43:00,
2013-03-04 15:48:00,65.2,51.4,29.92,WSW,238,2.0,12.0,61,0.00,,,0.00,Wunderground v.1.15,2013-03-04 23:48:00,
2013-03-04 15:53:00,64.6,51.7,29.92,WSW,254,2.0,12.0,63,0.00,,,0.00,Wunderground v.1.15,2013-03-04 23:53:00,
2013-03-04 15:58:00,64.8,51.9,29.92,NW,312,1.0,12.0,63,0.00,,,0.00,Wunderground v.1.15,2013-03-04 23:58:00,
2013-03-04 16:03:00,65.4,52.0,29.92,West,273,0.0,12.0,62,0.00,,,0.00,Wunderground v.1.15,2013-03-05 00:03:00,
2013-03-04 16:08:00,65.4,51.1,29.92,WNW,282,1.0,12.0,60,0.00,,,0.00,Wunderground v.1.15,2013-03-05 00:08:00,
2013-03-04 16:14:00,65.3,51.5,29.92,West,281,1.0,12.0,61,0.00,,,0.00,Wunderground v.1.15,2013-03-05 00:14:00,
2013-03-04 16:19:00,65.4,52.0,29.91,West,262,1.0,12.0,62,0.00,,,0.00,Wunderground v.1.15,2013-03-05 00:19:00,
2013-03-04 16:24:00,65.5,51.2,29.92,WSW,257,2.0,12.0,60,0.00,,,0.00,Wunderground v.1.15,2013-03-05 00:24:00,
2013-03-04 16:29:00,65.4,51.6,29.92,WNW,284,2.0,12.0,61,0.00,,,0.00,Wunderground v.1.15,2013-03-05 00:29:00,
2013-03-04 16:34:00,65.4,52.0,29.92,West,269,2.0,12.0,62,0.00,,,0.00,Wunderground v.1.15,2013-03-05 00:34:00,
2013-03-04 16:39:00,65.1,51.8,29.93,WNW,283,3.0,12.0,62,0.00,,,0.00,Wunderground v.1.15,2013-03-05 00:39:00,
2013-03-04 16:44:00,64.3,51.4,29.93,WNW,284,4.0,12.0,63,0.00,,,0.00,Wunderground v.1.15,2013-03-05 00:44:00,
2013-03-04 16:49:00,63.5,50.7,29.93,West,263,5.0,5.0,63,0.00,,,0.00,Wunderground v.1.15,2013-03-05 00:49:00,
2013-03-04 16:55:00,62.4,50.5,29.94,West,260,5.0,12.0,65,0.00,,,0.00,Wunderground v.1.15,2013-03-05 00:55:00,
2013-03-04 17:00:00,61.8,50.3,29.94,West,271,5.0,12.0,66,0.00,,,0.00,Wunderground v.1.15,2013-03-05 01:00:00,
2013-03-04 17:06:00,61.4,50.3,29.94,WSW,256,3.0,12.0,67,0.00,,,0.00,Wunderground v.1.15,2013-03-05 01:06:00,
2013-03-04 17:11:00,60.9,49.9,29.94,WSW,255,3.0,12.0,67,0.00,,,0.00,Wunderground v.1.15,2013-03-05 01:11:00,
2013-03-04 17:16:00,60.3,49.7,29.95,West,264,4.0,12.0,68,0.00,,,0.00,Wunderground v.1.15,2013-03-05 01:16:00,
2013-03-04 17:21:00,59.7,49.5,29.95,WNW,300,4.0,7.0,69,0.00,,,0.00,Wunderground v.1.15,2013-03-05 01:21:00,
2013-03-04 17:26:00,59.2,49.4,29.95,West,269,4.0,12.0,70,0.00,,,0.00,Wunderground v.1.15,2013-03-05 01:26:00,
2013-03-04 17:31:00,58.6,49.6,29.95,West,265,4.0,12.0,72,0.00,,,0.00,Wunderground v.1.15,2013-03-05 01:31:00,
2013-03-04 17:36:00,58.0,49.4,29.95,West,273,3.0,12.0,73,0.00,,,0.00,Wunderground v.1.15,2013-03-05 01:36:00,
2013-03-04 17:42:00,57.5,48.9,29.95,WSW,258,4.0,12.0,73,0.00,,,0.00,Wunderground v.1.15,2013-03-05 01:42:00,
2013-03-04 17:47:00,57.2,49.0,29.95,WSW,254,3.0,12.0,74,0.00,,,0.00,Wunderground v.1.15,2013-03-05 01:47:00,
2013-03-04 17:52:00,57.0,49.5,29.96,WSW,252,1.0,12.0,76,0.00,,,0.00,Wunderground v.1.15,2013-03-05 01:52:00,
2013-03-04 17:57:00,56.8,49.7,29.96,WSW,246,2.0,12.0,77,0.00,,,0.00,Wunderground v.1.15,2013-03-05 01:57:00,
2013-03-04 18:03:00,56.4,50.0,29.97,West,265,3.0,12.0,79,0.00,,,0.00,Wunderground v.1.15,2013-03-05 02:03:00,
2013-03-04 18:08:00,56.0,50.3,29.97,WNW,286,3.0,12.0,81,0.00,,,0.00,Wunderground v.1.15,2013-03-05 02:08:00,
2013-03-04 18:13:00,55.6,50.2,29.97,WSW,253,3.0,12.0,82,0.00,,,0.00,Wunderground v.1.15,2013-03-05 02:13:00,
2013-03-04 18:19:00,55.2,50.1,29.97,WSW,250,2.0,2.0,83,0.00,,,0.00,Wunderground v.1.15,2013-03-05 02:19:00,
2013-03-04 18:24:00,54.9,49.8,29.98,WSW,246,2.0,12.0,83,0.00,,,0.00,Wunderground v.1.15,2013-03-05 02:24:00,
2013-03-04 18:29:00,54.6,49.9,29.98,WSW,246,1.0,1.0,84,0.00,,,0.00,Wunderground v.1.15,2013-03-05 02:29:00,
2013-03-04 18:34:00,54.4,49.7,29.98,WSW,245,0.0,12.0,84,0.00,,,0.00,Wunderground v.1.15,2013-03-05 02:34:00,
2013-03-04 18:39:00,54.2,49.5,29.97,WSW,246,0.0,12.0,84,0.00,,,0.00,Wunderground v.1.15,2013-03-05 02:39:00,
2013-03-04 18:45:00,54.0,49.3,29.98,WSW,246,0.0,12.0,84,0.00,,,0.00,Wunderground v.1.15,2013-03-05 02:45:00,
2013-03-04 18:50:00,53.8,49.1,29.98,WSW,245,0.0,12.0,84,0.00,,,0.00,Wunderground v.1.15,2013-03-05 02:50:00,
2013-03-04 18:55:00,53.6,48.9,29.98,WSW,246,0.0,12.0,84,0.00,,,0.00,Wunderground v.1.15,2013-03-05 02:55:00,
2013-03-04 19:00:00,53.4,48.7,29.98,WSW,246,0.0,12.0,84,0.00,,,0.00,Wunderground v.1.15,2013-03-05 03:00:00,
2013-03-04 19:05:00,53.2,48.5,29.98,WSW,245,0.0,12.0,84,0.00,,,0.00,Wunderground v.1.15,2013-03-05 03:05:00,
2013-03-04 19:10:00,53.0,48.6,29.99,WSW,246,0.0,12.0,85,0.00,,,0.00,Wunderground v.1.15,2013-03-05 03:10:00,
2013-03-04 19:15:00,52.8,48.4,29.99,WSW,245,0.0,12.0,85,0.00,,,0.00,Wunderground v.1.15,2013-03-05 03:15:00,
2013-03-04 19:20:00,52.5,48.1,29.99,WSW,245,0.0,12.0,85,0.00,,,0.00,Wunderground v.1.15,2013-03-05 03:20:00,
2013-03-04 19:26:00,52.3,48.2,29.99,WSW,246,0.0,12.0,86,0.00,,,0.00,Wunderground v.1.15,2013-03-05 03:26:00,
2013-03-04 19:31:00,52.1,48.3,29.99,WSW,245,0.0,12.0,87,0.00,,,0.00,Wunderground v.1.15,2013-03-05 03:31:00,
2013-03-04 19:36:00,51.9,48.2,29.99,WSW,246,0.0,12.0,87,0.00,,,0.00,Wunderground v.1.15,2013-03-05 03:36:00,
2013-03-04 19:41:00,51.7,48.0,29.99,WSW,246,0.0,12.0,87,0.00,,,0.00,Wunderground v.1.15,2013-03-05 03:41:00,
2013-03-04 19:46:00,51.5,48.1,29.99,WSW,245,0.0,12.0,88,0.00,,,0.00,Wunderground v.1.15,2013-03-05 03:46:00,
2013-03-04 19:52:00,51.3,47.9,29.99,WSW,246,0.0,12.0,88,0.00,,,0.00,Wunderground v.1.15,2013-03-05 03:52:00,
2013-03-04 19:57:00,51.1,48.0,29.99,WSW,246,0.0,12.0,89,0.00,,,0.00,Wunderground v.1.15,2013-03-05 03:57:00,
2013-03-04 20:02:00,51.0,47.9,29.99,WSW,246,0.0,12.0,89,0.00,,,0.00,Wunderground v.1.15,2013-03-05 04:02:00,
2013-03-04 20:07:00,50.8,47.4,29.99,WSW,246,0.0,12.0,88,0.00,,,0.00,Wunderground v.1.15,2013-03-05 04:07:00,
2013-03-04 20:12:00,50.6,47.5,29.99,WSW,246,0.0,12.0,89,0.00,,,0.00,Wunderground v.1.15,2013-03-05 04:12:00,
2013-03-04 20:17:00,50.5,47.4,29.99,WSW,246,0.0,12.0,89,0.00,,,0.00,Wunderground v.1.15,2013-03-05 04:17:00,
2013-03-04 20:23:00,50.3,47.2,29.99,WSW,246,0.0,12.0,89,0.00,,,0.00,Wunderground v.1.15,2013-03-05 04:23:00,
2013-03-04 20:28:00,50.1,47.0,30.00,WSW,246,0.0,12.0,89,0.00,,,0.00,Wunderground v.1.15,2013-03-05 04:28:00,
2013-03-04 20:33:00,49.9,46.8,30.00,WSW,245,0.0,12.0,89,0.00,,,0.00,Wunderground v.1.15,2013-03-05 04:33:00,
2013-03-04 20:38:00,49.8,47.0,29.99,WSW,246,0.0,12.0,90,0.00,,,0.00,Wunderground v.1.15,2013-03-05 04:38:00,
2013-03-04 20:43:00,49.7,46.9,30.00,WSW,246,0.0,12.0,90,0.00,,,0.00,Wunderground v.1.15,2013-03-05 04:43:00,
2013-03-04 20:48:00,49.5,46.7,30.00,WSW,245,0.0,12.0,90,0.00,,,0.00,Wunderground v.1.15,2013-03-05 04:48:00,
2013-03-04 20:53:00,49.4,46.6,30.00,WSW,245,0.0,12.0,90,0.00,,,0.00,Wunderground v.1.15,2013-03-05 04:53:00,
2013-03-04 20:58:00,49.3,46.8,29.99,WSW,246,0.0,12.0,91,0.00,,,0.00,Wunderground v.1.15,2013-03-05 04:58:00,
2013-03-04 21:00:00,49.2,46.7,29.99,WSW,245,0.0,12.0,91,0.00,,,0.00,Wunderground v.1.15,2013-03-05 05:00:00,
2013-03-04 21:01:00,49.2,46.7,29.99,WSW,246,0.0,12.0,91,0.00,,,0.00,Wunderground v.1.15,2013-03-05 05:01:00,
2013-03-04 21:02:00,49.2,46.7,29.99,WSW,245,0.0,12.0,91,0.00,,,0.00,Wunderground v.1.15,2013-03-05 05:02:00,
2013-03-04 21:06:00,49.2,46.7,29.99,WSW,246,0.0,12.0,91,0.00,,,0.00,Wunderground v.1.15,2013-03-05 05:06:00,
2013-03-04 21:11:00,49.1,46.6,29.99,WSW,245,0.0,12.0,91,0.00,,,0.00,Wunderground v.1.15,2013-03-05 05:11:00,
2013-03-04 21:16:00,49.1,46.6,29.99,WSW,246,0.0,12.0,91,0.00,,,0.00,Wunderground v.1.15,2013-03-05 05:16:00,
2013-03-04 21:21:00,49.0,46.8,30.00,WSW,246,0.0,12.0,92,0.00,,,0.00,Wunderground v.1.15,2013-03-05 05:21:00,
2013-03-04 21:26:00,49.0,46.8,30.00,WSW,245,0.0,12.0,92,0.00,,,0.00,Wunderground v.1.15,2013-03-05 05:26:00,
2013-03-04 21:31:00,48.9,46.7,30.00,WSW,246,0.0,12.0,92,0.00,,,0.00,Wunderground v.1.15,2013-03-05 05:31:00,
2013-03-04 21:36:00,48.9,46.7,30.00,WSW,245,0.0,12.0,92,0.00,,,0.00,Wunderground v.1.15,2013-03-05 05:36:00,
2013-03-04 21:41:00,48.8,46.6,30.01,WSW,246,0.0,12.0,92,0.00,,,0.00,Wunderground v.1.15,2013-03-05 05:41:00,
2013-03-04 21:47:00,48.7,46.5,30.00,WSW,246,0.0,12.0,92,0.00,,,0.00,Wunderground v.1.15,2013-03-05 05:47:00,
2013-03-04 21:53:00,48.7,46.5,30.00,WSW,245,0.0,12.0,92,0.00,,,0.00,Wunderground v.1.15,2013-03-05 05:53:00,
2013-03-04 21:58:00,48.9,47.0,30.00,WSW,246,0.0,12.0,93,0.00,,,0.00,Wunderground v.1.15,2013-03-05 05:58:00,
2013-03-04 22:03:00,49.1,47.2,29.99,WSW,244,0.0,12.0,93,0.00,,,0.00,Wunderground v.1.15,2013-03-05 06:03:00,
2013-03-04 22:08:00,49.3,47.4,29.99,WSW,243,0.0,12.0,93,0.00,,,0.00,Wunderground v.1.15,2013-03-05 06:08:00,
2013-03-04 22:13:00,49.3,47.1,29.99,WSW,242,0.0,12.0,92,0.00,,,0.00,Wunderground v.1.15,2013-03-05 06:13:00,
2013-03-04 22:18:00,49.3,47.1,29.99,WSW,242,0.0,12.0,92,0.00,,,0.00,Wunderground v.1.15,2013-03-05 06:18:00,
2013-03-04 22:23:00,49.3,47.4,30.00,WSW,243,0.0,12.0,93,0.00,,,0.00,Wunderground v.1.15,2013-03-05 06:23:00,
2013-03-04 22:29:00,49.3,47.1,30.00,WSW,242,0.0,12.0,92,0.00,,,0.00,Wunderground v.1.15,2013-03-05 06:29:00,
2013-03-04 22:34:00,49.2,47.0,29.99,WSW,243,0.0,12.0,92,0.00,,,0.00,Wunderground v.1.15,2013-03-05 06:34:00,
2013-03-04 22:39:00,49.1,46.9,30.00,WSW,243,0.0,12.0,92,0.00,,,0.00,Wunderground v.1.15,2013-03-05 06:39:00,
2013-03-04 22:44:00,49.4,47.5,30.00,WSW,243,0.0,12.0,93,0.00,,,0.00,Wunderground v.1.15,2013-03-05 06:44:00,
2013-03-04 22:49:00,49.4,46.9,30.00,WSW,243,0.0,12.0,91,0.00,,,0.00,Wunderground v.1.15,2013-03-05 06:49:00,
2013-03-04 22:54:00,49.3,46.8,30.00,WSW,243,0.0,12.0,91,0.00,,,0.00,Wunderground v.1.15,2013-03-05 06:54:00,
2013-03-04 22:59:00,49.1,46.6,30.00,WSW,242,0.0,12.0,91,0.00,,,0.00,Wunderground v.1.15,2013-03-05 06:59:00,
2013-03-04 23:05:00,48.9,46.7,29.99,WSW,242,0.0,12.0,92,0.00,,,0.00,Wunderground v.1.15,2013-03-05 07:05:00,
2013-03-04 23:11:00,48.7,46.5,29.99,WSW,242,0.0,12.0,92,0.00,,,0.00,Wunderground v.1.15,2013-03-05 07:11:00,
2013-03-04 23:16:00,48.5,46.3,29.99,WSW,243,0.0,12.0,92,0.00,,,0.00,Wunderground v.1.15,2013-03-05 07:16:00,
2013-03-04 23:21:00,48.4,46.2,29.99,WSW,243,0.0,12.0,92,0.00,,,0.00,Wunderground v.1.15,2013-03-05 07:21:00,
2013-03-04 23:26:00,48.2,46.0,29.99,WSW,242,0.0,12.0,92,0.00,,,0.00,Wunderground v.1.15,2013-03-05 07:26:00,
2013-03-04 23:31:00,48.1,46.2,29.99,WSW,243,0.0,12.0,93,0.00,,,0.00,Wunderground v.1.15,2013-03-05 07:31:00,
2013-03-04 23:36:00,48.0,46.1,29.99,WSW,243,0.0,12.0,93,0.00,,,0.00,Wunderground v.1.15,2013-03-05 07:36:00,
2013-03-04 23:41:00,47.9,46.0,29.99,WSW,243,0.0,12.0,93,0.00,,,0.00,Wunderground v.1.15,2013-03-05 07:41:00,
2013-03-04 23:46:00,47.8,45.9,29.99,WSW,243,0.0,12.0,93,0.00,,,0.00,Wunderground v.1.15,2013-03-05 07:46:00,
2013-03-04 23:51:00,47.6,45.7,29.99,WSW,242,0.0,12.0,93,0.00,,,0.00,Wunderground v.1.15,2013-03-05 07:51:00,
2013-03-04 23:56:00,47.5,45.6,29.99,WSW,243,0.0,12.0,93,0.00,,,0.00,Wunderground v.1.15,2013-03-05 07:56:00,